Аэропорт: Домодедово. Москва

ICAO: UUDD

METAR:
2019/01/21 23:00
UUDD 212300Z 28004MPS 9999 FEW016 M14/M17 Q1011 R32L/450293 NOSIG
METAR:
2019/01/21 21:21
TAF UUDD 211956Z 2121/2303 28005MPS 8000 FEW006 BKN011 TXM12/2121Z TNM22/2303Z 
      TEMPO 2121/2209 3100 -SHSN FEW004 SCT012CB PROB40 
      TEMPO 2215/2303 0300 FZFG SCT002 
      BECMG 2215/2217 22003MPS